sensor_id;sensor_type;location;lat;lon;timestamp;pressure;altitude;pressure_sealevel;temperature;humidity
71151;BME280;59071;42.138;24.768;2023-04-20T00:00:06;99256.31;;;11.29;99.54
71151;BME280;59071;42.138;24.768;2023-04-20T00:02:38;99254.53;;;11.42;98.93
71151;BME280;59071;42.138;24.768;2023-04-20T00:05:04;99248.31;;;11.29;98.69
71151;BME280;59071;42.138;24.768;2023-04-20T00:07:29;99249.47;;;11.15;100.00
71151;BME280;59071;42.138;24.768;2023-04-20T00:09:55;99252.88;;;11.22;99.74
71151;BME280;59071;42.138;24.768;2023-04-20T00:12:21;99240.75;;;11.26;99.41
71151;BME280;59071;42.138;24.768;2023-04-20T00:14:46;99237.50;;;11.24;99.50
71151;BME280;59071;42.138;24.768;2023-04-20T00:17:11;99239.28;;;11.12;100.00
71151;BME280;59071;42.138;24.768;2023-04-20T00:19:36;99237.63;;;11.11;99.94
71151;BME280;59071;42.138;24.768;2023-04-20T00:22:02;99235.88;;;11.23;98.79
71151;BME280;59071;42.138;24.768;2023-04-20T00:24:27;99237.38;;;11.38;97.74
71151;BME280;59071;42.138;24.768;2023-04-20T00:26:52;99241.22;;;11.23;97.98
71151;BME280;59071;42.138;24.768;2023-04-20T00:29:19;99236.53;;;11.19;98.82
71151;BME280;59071;42.138;24.768;2023-04-20T00:31:44;99233.50;;;11.15;98.32
71151;BME280;59071;42.138;24.768;2023-04-20T00:34:09;99236.53;;;11.19;97.88
71151;BME280;59071;42.138;24.768;2023-04-20T00:36:35;99241.44;;;11.22;97.34
71151;BME280;59071;42.138;24.768;2023-04-20T00:39:00;99239.31;;;11.05;97.56
71151;BME280;59071;42.138;24.768;2023-04-20T00:41:26;99232.31;;;11.11;96.49
71151;BME280;59071;42.138;24.768;2023-04-20T00:43:52;99234.38;;;11.09;96.13
71151;BME280;59071;42.138;24.768;2023-04-20T00:46:18;99237.78;;;11.16;95.73
71151;BME280;59071;42.138;24.768;2023-04-20T00:48:43;99235.13;;;11.34;94.37
71151;BME280;59071;42.138;24.768;2023-04-20T00:51:08;99233.31;;;11.35;93.96
71151;BME280;59071;42.138;24.768;2023-04-20T00:53:34;99239.59;;;11.41;94.01
71151;BME280;59071;42.138;24.768;2023-04-20T00:56:00;99237.38;;;11.38;93.68
71151;BME280;59071;42.138;24.768;2023-04-20T00:58:25;99237.53;;;11.43;94.09
71151;BME280;59071;42.138;24.768;2023-04-20T01:00:51;99231.31;;;11.49;93.76
71151;BME280;59071;42.138;24.768;2023-04-20T01:03:16;99233.94;;;11.12;94.63
71151;BME280;59071;42.138;24.768;2023-04-20T01:05:41;99241.06;;;11.18;95.16
71151;BME280;59071;42.138;24.768;2023-04-20T01:08:07;99233.53;;;11.33;94.27
71151;BME280;59071;42.138;24.768;2023-04-20T01:10:32;99237.06;;;11.46;92.50
71151;BME280;59071;42.138;24.768;2023-04-20T01:12:57;99236.34;;;11.57;91.92
71151;BME280;59071;42.138;24.768;2023-04-20T01:15:23;99235.47;;;11.45;92.31
71151;BME280;59071;42.138;24.768;2023-04-20T01:17:48;99236.03;;;11.47;91.66
71151;BME280;59071;42.138;24.768;2023-04-20T01:20:13;99234.50;;;11.39;90.62
71151;BME280;59071;42.138;24.768;2023-04-20T01:25:10;99231.22;;;11.37;91.93
71151;BME280;59071;42.138;24.768;2023-04-20T01:27:35;99227.91;;;11.42;91.41
71151;BME280;59071;42.138;24.768;2023-04-20T01:30:00;99228.34;;;11.57;91.08
71151;BME280;59071;42.138;24.768;2023-04-20T01:32:26;99223.06;;;11.69;89.42
71151;BME280;59071;42.138;24.768;2023-04-20T01:34:51;99227.38;;;11.70;88.51
71151;BME280;59071;42.138;24.768;2023-04-20T01:37:16;99232.56;;;11.65;87.38
71151;BME280;59071;42.138;24.768;2023-04-20T01:39:41;99224.13;;;11.86;86.36
71151;BME280;59071;42.138;24.768;2023-04-20T01:42:07;99195.97;;;11.72;86.04
71151;BME280;59071;42.138;24.768;2023-04-20T01:44:33;99216.19;;;11.80;85.81
71151;BME280;59071;42.138;24.768;2023-04-20T01:46:58;99227.22;;;11.65;86.33
71151;BME280;59071;42.138;24.768;2023-04-20T01:49:23;99212.50;;;11.81;85.74
71151;BME280;59071;42.138;24.768;2023-04-20T01:51:49;99208.84;;;11.93;84.06
71151;BME280;59071;42.138;24.768;2023-04-20T01:54:14;99210.69;;;12.11;82.73
71151;BME280;59071;42.138;24.768;2023-04-20T01:56:39;99212.66;;;11.67;83.91
71151;BME280;59071;42.138;24.768;2023-04-20T01:59:05;99215.06;;;11.87;82.25
71151;BME280;59071;42.138;24.768;2023-04-20T02:01:30;99218.66;;;12.00;80.97
71151;BME280;59071;42.138;24.768;2023-04-20T02:03:55;99214.78;;;12.26;79.24
71151;BME280;59071;42.138;24.768;2023-04-20T02:06:21;99215.31;;;12.16;77.56
71151;BME280;59071;42.138;24.768;2023-04-20T02:08:46;99217.81;;;11.99;79.19
71151;BME280;59071;42.138;24.768;2023-04-20T02:11:11;99208.94;;;11.68;79.47
71151;BME280;59071;42.138;24.768;2023-04-20T02:13:37;99211.44;;;11.82;77.93
71151;BME280;59071;42.138;24.768;2023-04-20T02:16:02;99216.88;;;11.75;78.83
71151;BME280;59071;42.138;24.768;2023-04-20T02:18:27;99212.88;;;11.84;77.30
71151;BME280;59071;42.138;24.768;2023-04-20T02:20:54;99218.75;;;12.05;76.88
71151;BME280;59071;42.138;24.768;2023-04-20T02:23:19;99215.06;;;11.87;77.77
71151;BME280;59071;42.138;24.768;2023-04-20T02:25:45;99215.47;;;11.91;77.76
71151;BME280;59071;42.138;24.768;2023-04-20T02:28:10;99215.97;;;12.00;77.39
71151;BME280;59071;42.138;24.768;2023-04-20T02:30:35;99221.53;;;11.98;76.38
71151;BME280;59071;42.138;24.768;2023-04-20T02:33:00;99217.63;;;12.12;76.37
71151;BME280;59071;42.138;24.768;2023-04-20T02:35:26;99208.81;;;12.12;75.95
71151;BME280;59071;42.138;24.768;2023-04-20T02:37:51;99219.31;;;11.95;76.70
71151;BME280;59071;42.138;24.768;2023-04-20T02:40:16;99222.25;;;12.05;76.62
71151;BME280;59071;42.138;24.768;2023-04-20T02:42:42;99224.16;;;12.17;74.61
71151;BME280;59071;42.138;24.768;2023-04-20T02:45:07;99223.63;;;12.26;74.68
71151;BME280;59071;42.138;24.768;2023-04-20T02:47:33;99230.19;;;12.24;73.53
71151;BME280;59071;42.138;24.768;2023-04-20T02:49:58;99226.50;;;12.25;74.03
71151;BME280;59071;42.138;24.768;2023-04-20T02:52:23;99219.41;;;12.19;74.19
71151;BME280;59071;42.138;24.768;2023-04-20T02:54:48;99221.00;;;12.08;74.46
71151;BME280;59071;42.138;24.768;2023-04-20T02:57:14;99217.16;;;12.04;74.74
71151;BME280;59071;42.138;24.768;2023-04-20T02:59:39;99220.84;;;12.03;74.43
71151;BME280;59071;42.138;24.768;2023-04-20T03:02:05;99221.38;;;11.93;75.51
71151;BME280;59071;42.138;24.768;2023-04-20T03:04:30;99214.94;;;11.64;75.86
71151;BME280;59071;42.138;24.768;2023-04-20T03:06:56;99216.13;;;11.68;75.34
71151;BME280;59071;42.138;24.768;2023-04-20T03:09:21;99221.97;;;11.77;75.39
71151;BME280;59071;42.138;24.768;2023-04-20T03:11:47;99217.34;;;11.84;74.67
71151;BME280;59071;42.138;24.768;2023-04-20T03:14:12;99225.53;;;11.70;75.13
71151;BME280;59071;42.138;24.768;2023-04-20T03:16:38;99224.19;;;11.61;74.77
71151;BME280;59071;42.138;24.768;2023-04-20T03:19:03;99221.03;;;11.71;75.07
71151;BME280;59071;42.138;24.768;2023-04-20T03:21:28;99227.63;;;11.50;74.53
71151;BME280;59071;42.138;24.768;2023-04-20T03:23:54;99223.16;;;11.62;75.13
71151;BME280;59071;42.138;24.768;2023-04-20T03:26:19;99222.84;;;11.70;73.68
71151;BME280;59071;42.138;24.768;2023-04-20T03:28:44;99212.13;;;11.77;73.17
71151;BME280;59071;42.138;24.768;2023-04-20T03:31:09;99224.81;;;11.63;73.80
71151;BME280;59071;42.138;24.768;2023-04-20T03:33:35;99216.28;;;11.54;73.36
71151;BME280;59071;42.138;24.768;2023-04-20T03:36:00;99216.63;;;11.95;72.46
71151;BME280;59071;42.138;24.768;2023-04-20T03:38:25;99215.06;;;12.36;70.34
71151;BME280;59071;42.138;24.768;2023-04-20T03:40:51;99218.13;;;12.63;68.84
71151;BME280;59071;42.138;24.768;2023-04-20T03:43:16;99214.28;;;12.59;69.35
71151;BME280;59071;42.138;24.768;2023-04-20T03:45:41;99213.72;;;12.57;69.15
71151;BME280;59071;42.138;24.768;2023-04-20T03:48:06;99220.78;;;12.63;68.61
71151;BME280;59071;42.138;24.768;2023-04-20T03:50:32;99226.06;;;12.82;68.13
71151;BME280;59071;42.138;24.768;2023-04-20T03:52:57;99225.94;;;13.00;68.42
71151;BME280;59071;42.138;24.768;2023-04-20T03:55:22;99225.56;;;12.85;68.37
71151;BME280;59071;42.138;24.768;2023-04-20T03:57:48;99224.53;;;12.86;68.02
71151;BME280;59071;42.138;24.768;2023-04-20T04:00:13;99235.13;;;13.04;67.46
71151;BME280;59071;42.138;24.768;2023-04-20T04:02:38;99224.41;;;12.93;67.66
71151;BME280;59071;42.138;24.768;2023-04-20T04:05:04;99224.31;;;13.23;66.80
71151;BME280;59071;42.138;24.768;2023-04-20T04:07:29;99226.88;;;13.06;67.25
71151;BME280;59071;42.138;24.768;2023-04-20T04:09:55;99227.94;;;13.05;67.77
71151;BME280;59071;42.138;24.768;2023-04-20T04:12:20;99235.34;;;13.03;67.56
71151;BME280;59071;42.138;24.768;2023-04-20T04:14:45;99236.53;;;12.95;67.63
71151;BME280;59071;42.138;24.768;2023-04-20T04:17:12;99242.06;;;12.82;68.33
71151;BME280;59071;42.138;24.768;2023-04-20T04:19:37;99240.94;;;13.01;67.53
71151;BME280;59071;42.138;24.768;2023-04-20T04:22:03;99245.69;;;12.99;67.18
71151;BME280;59071;42.138;24.768;2023-04-20T04:24:28;99237.22;;;13.38;66.39
71151;BME280;59071;42.138;24.768;2023-04-20T04:26:53;99244.63;;;14.12;63.99
71151;BME280;59071;42.138;24.768;2023-04-20T04:29:23;99246.47;;;13.82;64.67
71151;BME280;59071;42.138;24.768;2023-04-20T04:31:50;99247.63;;;14.44;62.10
71151;BME280;59071;42.138;24.768;2023-04-20T04:34:15;99246.41;;;14.52;62.08
71151;BME280;59071;42.138;24.768;2023-04-20T04:36:42;99238.34;;;15.14;60.40
71151;BME280;59071;42.138;24.768;2023-04-20T04:39:08;99235.28;;;15.44;58.90
71151;BME280;59071;42.138;24.768;2023-04-20T04:41:33;99246.56;;;15.47;58.72
71151;BME280;59071;42.138;24.768;2023-04-20T04:43:58;99245.69;;;15.41;60.31
71151;BME280;59071;42.138;24.768;2023-04-20T04:46:23;99244.91;;;16.07;69.51
71151;BME280;59071;42.138;24.768;2023-04-20T04:48:49;99243.31;;;16.92;62.38
71151;BME280;59071;42.138;24.768;2023-04-20T04:51:15;99244.56;;;17.12;60.89
71151;BME280;59071;42.138;24.768;2023-04-20T04:53:40;99242.72;;;16.58;58.07
71151;BME280;59071;42.138;24.768;2023-04-20T04:56:09;99239.25;;;16.30;60.04
71151;BME280;59071;42.138;24.768;2023-04-20T04:58:34;99244.63;;;16.30;61.27
71151;BME280;59071;42.138;24.768;2023-04-20T05:00:59;99240.44;;;16.39;58.49
71151;BME280;59071;42.138;24.768;2023-04-20T05:03:25;99247.38;;;16.95;58.34
71151;BME280;59071;42.138;24.768;2023-04-20T05:05:50;99251.75;;;16.19;56.58
71151;BME280;59071;42.138;24.768;2023-04-20T05:08:16;99248.22;;;15.70;57.04
71151;BME280;59071;42.138;24.768;2023-04-20T05:10:41;99243.81;;;15.41;58.25
71151;BME280;59071;42.138;24.768;2023-04-20T05:13:06;99243.13;;;14.78;60.11
71151;BME280;59071;42.138;24.768;2023-04-20T05:15:31;99251.41;;;15.11;58.30
71151;BME280;59071;42.138;24.768;2023-04-20T05:17:57;99249.41;;;14.55;60.54
71151;BME280;59071;42.138;24.768;2023-04-20T05:20:22;99243.47;;;14.65;60.31
71151;BME280;59071;42.138;24.768;2023-04-20T05:22:47;99247.19;;;15.15;59.96
71151;BME280;59071;42.138;24.768;2023-04-20T05:25:13;99252.72;;;15.47;58.03
71151;BME280;59071;42.138;24.768;2023-04-20T05:27:38;99256.38;;;15.58;59.74
71151;BME280;59071;42.138;24.768;2023-04-20T05:30:05;99256.69;;;15.61;57.58
71151;BME280;59071;42.138;24.768;2023-04-20T05:32:31;99263.31;;;15.37;58.40
71151;BME280;59071;42.138;24.768;2023-04-20T05:34:56;99262.78;;;15.18;59.73
71151;BME280;59071;42.138;24.768;2023-04-20T05:37:22;99257.66;;;15.16;58.82
71151;BME280;59071;42.138;24.768;2023-04-20T05:39:47;99257.25;;;15.63;57.53
71151;BME280;59071;42.138;24.768;2023-04-20T05:42:13;99258.19;;;15.52;58.25
71151;BME280;59071;42.138;24.768;2023-04-20T05:44:38;99255.13;;;15.66;57.40
71151;BME280;59071;42.138;24.768;2023-04-20T05:47:05;99258.28;;;15.40;58.28
71151;BME280;59071;42.138;24.768;2023-04-20T05:49:32;99258.97;;;15.53;57.32
71151;BME280;59071;42.138;24.768;2023-04-20T05:51:57;99261.00;;;15.23;58.56
71151;BME280;59071;42.138;24.768;2023-04-20T05:54:23;99258.72;;;15.54;56.90
71151;BME280;59071;42.138;24.768;2023-04-20T05:56:48;99256.72;;;15.44;57.02
71151;BME280;59071;42.138;24.768;2023-04-20T05:59:14;99260.53;;;16.10;55.55
71151;BME280;59071;42.138;24.768;2023-04-20T06:01:40;99255.94;;;16.10;54.42
71151;BME280;59071;42.138;24.768;2023-04-20T06:04:05;99252.47;;;16.10;54.70
71151;BME280;59071;42.138;24.768;2023-04-20T06:06:31;99252.19;;;16.60;53.67
71151;BME280;59071;42.138;24.768;2023-04-20T06:08:56;99264.34;;;16.68;53.02
71151;BME280;59071;42.138;24.768;2023-04-20T06:11:22;99258.47;;;17.46;51.70
71151;BME280;59071;42.138;24.768;2023-04-20T06:13:47;99260.13;;;17.52;50.91
71151;BME280;59071;42.138;24.768;2023-04-20T06:16:12;99266.72;;;17.82;50.99
71151;BME280;59071;42.138;24.768;2023-04-20T06:18:38;99274.91;;;17.97;50.95
71151;BME280;59071;42.138;24.768;2023-04-20T06:21:03;99267.84;;;17.86;49.51
71151;BME280;59071;42.138;24.768;2023-04-20T06:23:28;99269.03;;;17.58;50.16
71151;BME280;59071;42.138;24.768;2023-04-20T06:25:54;99268.59;;;17.29;51.00
71151;BME280;59071;42.138;24.768;2023-04-20T06:28:19;99273.34;;;17.16;51.65
71151;BME280;59071;42.138;24.768;2023-04-20T06:30:44;99262.41;;;17.81;50.22
71151;BME280;59071;42.138;24.768;2023-04-20T06:33:10;99254.13;;;17.88;49.43
71151;BME280;59071;42.138;24.768;2023-04-20T06:35:40;99271.66;;;17.95;49.07
71151;BME280;59071;42.138;24.768;2023-04-20T06:38:06;99266.78;;;17.92;49.13
71151;BME280;59071;42.138;24.768;2023-04-20T06:40:31;99261.28;;;18.55;49.56
71151;BME280;59071;42.138;24.768;2023-04-20T06:42:56;99263.97;;;18.45;48.97
71151;BME280;59071;42.138;24.768;2023-04-20T06:45:22;99259.94;;;18.48;48.17
71151;BME280;59071;42.138;24.768;2023-04-20T06:47:47;99262.13;;;19.38;47.17
71151;BME280;59071;42.138;24.768;2023-04-20T06:50:12;99255.94;;;19.02;47.25
71151;BME280;59071;42.138;24.768;2023-04-20T06:52:38;99256.00;;;20.42;45.09
71151;BME280;59071;42.138;24.768;2023-04-20T06:55:04;99263.81;;;20.49;44.58
71151;BME280;59071;42.138;24.768;2023-04-20T06:57:29;99259.44;;;21.51;43.34
71151;BME280;59071;42.138;24.768;2023-04-20T06:59:55;99255.13;;;21.21;42.66
71151;BME280;59071;42.138;24.768;2023-04-20T07:02:20;99256.13;;;21.01;42.49
71151;BME280;59071;42.138;24.768;2023-04-20T07:04:45;99258.06;;;21.24;41.71
71151;BME280;59071;42.138;24.768;2023-04-20T07:07:11;99255.63;;;21.57;39.94
71151;BME280;59071;42.138;24.768;2023-04-20T07:09:36;99258.53;;;21.61;40.09
71151;BME280;59071;42.138;24.768;2023-04-20T07:12:01;99260.59;;;21.16;39.66
71151;BME280;59071;42.138;24.768;2023-04-20T07:14:27;99270.75;;;21.82;39.49
71151;BME280;59071;42.138;24.768;2023-04-20T07:16:52;99267.59;;;22.18;39.11
71151;BME280;59071;42.138;24.768;2023-04-20T07:19:18;99261.91;;;21.18;40.26
71151;BME280;59071;42.138;24.768;2023-04-20T07:21:43;99260.31;;;22.14;39.50
71151;BME280;59071;42.138;24.768;2023-04-20T07:24:08;99259.25;;;21.13;40.95
71151;BME280;59071;42.138;24.768;2023-04-20T07:26:34;99251.81;;;21.00;40.67
71151;BME280;59071;42.138;24.768;2023-04-20T07:28:59;99257.22;;;21.58;40.12
71151;BME280;59071;42.138;24.768;2023-04-20T07:31:24;99260.31;;;22.14;40.15
71151;BME280;59071;42.138;24.768;2023-04-20T07:33:50;99248.34;;;22.91;38.95
71151;BME280;59071;42.138;24.768;2023-04-20T07:36:15;99255.19;;;23.35;38.09
71151;BME280;59071;42.138;24.768;2023-04-20T07:38:40;99267.59;;;22.75;38.08
71151;BME280;59071;42.138;24.768;2023-04-20T07:41:09;99253.56;;;22.87;37.01
71151;BME280;59071;42.138;24.768;2023-04-20T07:43:35;99256.13;;;23.58;36.85
71151;BME280;59071;42.138;24.768;2023-04-20T07:46:00;99262.63;;;22.44;37.78
71151;BME280;59071;42.138;24.768;2023-04-20T07:48:25;99261.22;;;22.66;37.12
71151;BME280;59071;42.138;24.768;2023-04-20T07:50:51;99265.66;;;22.00;38.07
71151;BME280;59071;42.138;24.768;2023-04-20T07:53:16;99268.44;;;22.14;38.22
71151;BME280;59071;42.138;24.768;2023-04-20T07:55:41;99264.31;;;22.59;37.66
71151;BME280;59071;42.138;24.768;2023-04-20T07:58:06;99263.00;;;22.57;38.17
71151;BME280;59071;42.138;24.768;2023-04-20T08:00:32;99258.88;;;22.92;37.90
71151;BME280;59071;42.138;24.768;2023-04-20T08:02:57;99258.00;;;22.97;37.30
71151;BME280;59071;42.138;24.768;2023-04-20T08:05:23;99248.72;;;22.84;38.44
71151;BME280;59071;42.138;24.768;2023-04-20T08:07:48;99269.16;;;22.62;38.27
71151;BME280;59071;42.138;24.768;2023-04-20T08:10:14;99259.03;;;22.49;37.33
71151;BME280;59071;42.138;24.768;2023-04-20T08:12:40;99264.16;;;21.89;38.69
71151;BME280;59071;42.138;24.768;2023-04-20T08:15:06;99260.75;;;22.02;39.16
71151;BME280;59071;42.138;24.768;2023-04-20T08:17:32;99257.84;;;22.55;38.59
71151;BME280;59071;42.138;24.768;2023-04-20T08:19:57;99255.06;;;22.22;38.81
71151;BME280;59071;42.138;24.768;2023-04-20T08:22:22;99256.06;;;22.32;39.57
71151;BME280;59071;42.138;24.768;2023-04-20T08:24:51;99249.78;;;22.50;38.50
71151;BME280;59071;42.138;24.768;2023-04-20T08:27:16;99257.59;;;22.38;38.49
71151;BME280;59071;42.138;24.768;2023-04-20T08:29:41;99251.75;;;22.63;38.11
71151;BME280;59071;42.138;24.768;2023-04-20T08:32:06;99243.09;;;22.80;38.67
71151;BME280;59071;42.138;24.768;2023-04-20T08:34:36;99251.31;;;22.18;39.45
71151;BME280;59071;42.138;24.768;2023-04-20T08:37:01;99251.44;;;22.32;39.27
71151;BME280;59071;42.138;24.768;2023-04-20T08:39:27;99248.41;;;22.15;39.08
71151;BME280;59071;42.138;24.768;2023-04-20T08:41:54;99242.00;;;22.05;39.45
71151;BME280;59071;42.138;24.768;2023-04-20T08:44:21;99245.53;;;21.63;40.88
71151;BME280;59071;42.138;24.768;2023-04-20T08:46:47;99249.88;;;21.83;40.82
71151;BME280;59071;42.138;24.768;2023-04-20T08:49:15;99255.34;;;21.78;40.43
71151;BME280;59071;42.138;24.768;2023-04-20T08:51:45;99238.53;;;21.81;39.63
71151;BME280;59071;42.138;24.768;2023-04-20T08:54:10;99227.66;;;22.95;38.46
71151;BME280;59071;42.138;24.768;2023-04-20T08:56:37;99229.75;;;23.58;36.39
71151;BME280;59071;42.138;24.768;2023-04-20T08:59:03;99236.19;;;23.49;36.00
71151;BME280;59071;42.138;24.768;2023-04-20T09:01:29;99232.28;;;23.69;36.04
71151;BME280;59071;42.138;24.768;2023-04-20T09:03:55;99222.75;;;23.57;35.41
71151;BME280;59071;42.138;24.768;2023-04-20T09:06:20;99219.91;;;23.49;35.34
71151;BME280;59071;42.138;24.768;2023-04-20T09:08:46;99219.22;;;22.63;36.30
71151;BME280;59071;42.138;24.768;2023-04-20T09:13:56;99229.72;;;23.17;36.77
71151;BME280;59071;42.138;24.768;2023-04-20T09:16:22;99223.94;;;23.65;36.44
71151;BME280;59071;42.138;24.768;2023-04-20T09:18:54;99218.16;;;23.11;37.06
71151;BME280;59071;42.138;24.768;2023-04-20T09:21:21;99228.97;;;22.97;37.40
71151;BME280;59071;42.138;24.768;2023-04-20T09:23:59;99232.03;;;22.20;37.50
71151;BME280;59071;42.138;24.768;2023-04-20T09:26:25;99228.63;;;21.95;36.99
71151;BME280;59071;42.138;24.768;2023-04-20T09:28:51;99227.69;;;22.24;36.98
71151;BME280;59071;42.138;24.768;2023-04-20T09:31:17;99208.31;;;22.69;36.56
71151;BME280;59071;42.138;24.768;2023-04-20T09:33:43;99220.84;;;22.64;37.05
71151;BME280;59071;42.138;24.768;2023-04-20T09:36:08;99214.97;;;23.23;36.51
71151;BME280;59071;42.138;24.768;2023-04-20T09:38:35;99209.84;;;23.63;34.73
71151;BME280;59071;42.138;24.768;2023-04-20T09:41:00;99215.38;;;23.30;36.30
71151;BME280;59071;42.138;24.768;2023-04-20T09:43:26;99209.44;;;23.14;35.86
71151;BME280;59071;42.138;24.768;2023-04-20T09:45:52;99208.00;;;24.00;35.12
71151;BME280;59071;42.138;24.768;2023-04-20T09:48:18;99200.50;;;24.19;34.43
71151;BME280;59071;42.138;24.768;2023-04-20T09:50:46;99213.34;;;23.77;35.15
71151;BME280;59071;42.138;24.768;2023-04-20T09:53:12;99204.41;;;24.64;34.65
71151;BME280;59071;42.138;24.768;2023-04-20T09:55:44;99205.34;;;24.45;33.57
71151;BME280;59071;42.138;24.768;2023-04-20T09:58:09;99203.09;;;23.60;33.57
71151;BME280;59071;42.138;24.768;2023-04-20T10:00:35;99199.97;;;24.31;33.10
71151;BME280;59071;42.138;24.768;2023-04-20T10:03:00;99188.19;;;24.81;32.32
71151;BME280;59071;42.138;24.768;2023-04-20T10:05:32;99182.53;;;24.32;33.07
71151;BME280;59071;42.138;24.768;2023-04-20T10:07:58;99189.81;;;23.87;33.23
71151;BME280;59071;42.138;24.768;2023-04-20T10:10:25;99187.00;;;24.28;33.23
71151;BME280;59071;42.138;24.768;2023-04-20T10:12:52;99182.97;;;24.48;32.09
71151;BME280;59071;42.138;24.768;2023-04-20T10:15:17;99182.19;;;25.02;32.19
71151;BME280;59071;42.138;24.768;2023-04-20T10:17:43;99177.38;;;25.96;29.69
71151;BME280;59071;42.138;24.768;2023-04-20T10:20:29;99175.47;;;26.05;29.30
71151;BME280;59071;42.138;24.768;2023-04-20T10:23:05;99175.25;;;25.75;30.92
71151;BME280;59071;42.138;24.768;2023-04-20T10:25:31;99181.81;;;25.74;30.25
71151;BME280;59071;42.138;24.768;2023-04-20T10:27:58;99172.59;;;24.28;31.19
71151;BME280;59071;42.138;24.768;2023-04-20T10:30:24;99168.53;;;24.62;31.98
71151;BME280;59071;42.138;24.768;2023-04-20T10:33:00;99161.47;;;24.83;31.53
71151;BME280;59071;42.138;24.768;2023-04-20T10:35:26;99167.97;;;24.28;32.91
71151;BME280;59071;42.138;24.768;2023-04-20T10:37:51;99158.66;;;24.66;32.61
71151;BME280;59071;42.138;24.768;2023-04-20T10:40:23;99171.84;;;24.13;33.31
71151;BME280;59071;42.138;24.768;2023-04-20T10:42:49;99173.34;;;24.42;33.17
71151;BME280;59071;42.138;24.768;2023-04-20T10:45:14;99171.09;;;24.44;32.38
71151;BME280;59071;42.138;24.768;2023-04-20T10:47:40;99168.56;;;24.48;31.87
71151;BME280;59071;42.138;24.768;2023-04-20T10:52:37;99161.97;;;24.94;31.34
71151;BME280;59071;42.138;24.768;2023-04-20T10:55:04;99157.25;;;25.08;30.96
71151;BME280;59071;42.138;24.768;2023-04-20T10:57:30;99164.34;;;25.18;30.64
71151;BME280;59071;42.138;24.768;2023-04-20T10:59:56;99174.03;;;25.33;29.45
71151;BME280;59071;42.138;24.768;2023-04-20T11:02:21;99162.38;;;25.59;29.90
71151;BME280;59071;42.138;24.768;2023-04-20T11:04:46;99167.66;;;25.15;30.22
71151;BME280;59071;42.138;24.768;2023-04-20T11:07:12;99173.41;;;25.36;30.34
71151;BME280;59071;42.138;24.768;2023-04-20T11:09:37;99178.41;;;25.51;31.09
71151;BME280;59071;42.138;24.768;2023-04-20T11:12:09;99179.06;;;24.54;32.82
71151;BME280;59071;42.138;24.768;2023-04-20T11:14:49;99174.22;;;23.92;37.51
71151;BME280;59071;42.138;24.768;2023-04-20T11:17:14;99189.25;;;22.88;39.72
71151;BME280;59071;42.138;24.768;2023-04-20T11:19:40;99188.50;;;21.97;42.22
71151;BME280;59071;42.138;24.768;2023-04-20T11:22:05;99195.50;;;22.17;43.28
71151;BME280;59071;42.138;24.768;2023-04-20T11:24:31;99182.25;;;21.78;43.11
71151;BME280;59071;42.138;24.768;2023-04-20T11:26:57;99180.38;;;22.16;42.07
71151;BME280;59071;42.138;24.768;2023-04-20T11:31:55;99166.09;;;22.11;40.44
71151;BME280;59071;42.138;24.768;2023-04-20T11:34:21;99153.88;;;21.51;40.60
71151;BME280;59071;42.138;24.768;2023-04-20T11:36:46;99155.84;;;21.89;40.01
71151;BME280;59071;42.138;24.768;2023-04-20T11:39:12;99147.53;;;21.61;40.46
71151;BME280;59071;42.138;24.768;2023-04-20T11:41:38;99149.09;;;21.67;40.18
71151;BME280;59071;42.138;24.768;2023-04-20T11:44:06;99151.13;;;21.56;40.21
71151;BME280;59071;42.138;24.768;2023-04-20T11:46:33;99144.84;;;21.80;40.88
71151;BME280;59071;42.138;24.768;2023-04-20T11:48:58;99139.22;;;21.95;40.96
71151;BME280;59071;42.138;24.768;2023-04-20T11:51:24;99135.78;;;22.28;40.48
71151;BME280;59071;42.138;24.768;2023-04-20T11:53:51;99132.09;;;22.18;40.04
71151;BME280;59071;42.138;24.768;2023-04-20T11:56:16;99121.28;;;21.80;41.04
71151;BME280;59071;42.138;24.768;2023-04-20T11:58:42;99120.91;;;21.68;42.47
71151;BME280;59071;42.138;24.768;2023-04-20T12:01:07;99110.88;;;22.06;40.28
71151;BME280;59071;42.138;24.768;2023-04-20T12:03:33;99116.00;;;22.08;39.47
71151;BME280;59071;42.138;24.768;2023-04-20T12:05:58;99112.50;;;21.70;41.67
71151;BME280;59071;42.138;24.768;2023-04-20T12:08:23;99112.47;;;22.08;39.98
71151;BME280;59071;42.138;24.768;2023-04-20T12:10:49;99107.38;;;22.39;40.31
71151;BME280;59071;42.138;24.768;2023-04-20T12:13:14;99110.25;;;22.48;39.41
71151;BME280;59071;42.138;24.768;2023-04-20T12:15:40;99106.63;;;23.13;35.95
71151;BME280;59071;42.138;24.768;2023-04-20T12:18:05;99100.28;;;23.03;35.69
71151;BME280;59071;42.138;24.768;2023-04-20T12:20:30;99094.94;;;23.40;35.99
71151;BME280;59071;42.138;24.768;2023-04-20T12:22:56;99090.19;;;23.96;34.11
71151;BME280;59071;42.138;24.768;2023-04-20T12:25:21;99088.59;;;24.71;31.95
71151;BME280;59071;42.138;24.768;2023-04-20T12:27:46;99085.53;;;24.19;31.90
71151;BME280;59071;42.138;24.768;2023-04-20T12:30:12;99087.59;;;23.77;31.65
71151;BME280;59071;42.138;24.768;2023-04-20T12:32:37;99083.75;;;24.37;31.25
71151;BME280;59071;42.138;24.768;2023-04-20T12:35:03;99084.94;;;24.76;29.52
71151;BME280;59071;42.138;24.768;2023-04-20T12:37:29;99079.09;;;25.00;29.40
71151;BME280;59071;42.138;24.768;2023-04-20T12:39:54;99073.56;;;24.83;29.48
71151;BME280;59071;42.138;24.768;2023-04-20T12:42:21;99077.13;;;25.23;29.05
71151;BME280;59071;42.138;24.768;2023-04-20T12:44:46;99070.94;;;25.00;30.12
71151;BME280;59071;42.138;24.768;2023-04-20T12:47:12;99055.81;;;24.45;30.64
71151;BME280;59071;42.138;24.768;2023-04-20T12:49:37;99066.09;;;24.26;31.34
71151;BME280;59071;42.138;24.768;2023-04-20T12:52:03;99063.75;;;24.10;32.86